sensor_id;sensor_type;location;lat;lon;timestamp;P1;durP1;ratioP1;P2;durP2;ratioP2
60873;SDS011;46715;40.642;-7.920;2023-07-20T00:00:20;19.92;;;7.07;;
60873;SDS011;46715;40.642;-7.920;2023-07-20T00:02:20;15.57;;;6.47;;
60873;SDS011;46715;40.642;-7.920;2023-07-20T00:04:21;15.18;;;6.75;;
60873;SDS011;46715;40.642;-7.920;2023-07-20T00:06:22;16.83;;;5.53;;
60873;SDS011;46715;40.642;-7.920;2023-07-20T00:08:27;15.32;;;6.50;;
60873;SDS011;46715;40.642;-7.920;2023-07-20T00:10:28;12.43;;;5.60;;
60873;SDS011;46715;40.642;-7.920;2023-07-20T00:12:29;13.63;;;5.97;;
60873;SDS011;46715;40.642;-7.920;2023-07-20T00:14:29;16.90;;;6.70;;
60873;SDS011;46715;40.642;-7.920;2023-07-20T00:16:32;16.35;;;6.53;;
60873;SDS011;46715;40.642;-7.920;2023-07-20T00:18:33;15.77;;;6.03;;
60873;SDS011;46715;40.642;-7.920;2023-07-20T00:20:33;15.33;;;7.07;;
60873;SDS011;46715;40.642;-7.920;2023-07-20T00:22:34;16.73;;;6.83;;
60873;SDS011;46715;40.642;-7.920;2023-07-20T00:24:35;15.33;;;6.47;;
60873;SDS011;46715;40.642;-7.920;2023-07-20T00:26:35;14.50;;;5.57;;
60873;SDS011;46715;40.642;-7.920;2023-07-20T00:28:37;14.82;;;6.40;;
60873;SDS011;46715;40.642;-7.920;2023-07-20T00:30:37;15.43;;;7.20;;
60873;SDS011;46715;40.642;-7.920;2023-07-20T00:32:38;13.90;;;6.10;;
60873;SDS011;46715;40.642;-7.920;2023-07-20T00:34:39;15.77;;;6.45;;
60873;SDS011;46715;40.642;-7.920;2023-07-20T00:36:40;14.53;;;6.40;;
60873;SDS011;46715;40.642;-7.920;2023-07-20T00:38:42;18.73;;;6.45;;
60873;SDS011;46715;40.642;-7.920;2023-07-20T00:40:43;14.23;;;6.40;;
60873;SDS011;46715;40.642;-7.920;2023-07-20T00:42:45;19.58;;;6.60;;
60873;SDS011;46715;40.642;-7.920;2023-07-20T00:44:45;13.60;;;6.67;;
60873;SDS011;46715;40.642;-7.920;2023-07-20T00:46:46;14.87;;;7.03;;
60873;SDS011;46715;40.642;-7.920;2023-07-20T00:48:48;14.27;;;6.45;;
60873;SDS011;46715;40.642;-7.920;2023-07-20T00:50:48;15.80;;;6.60;;
60873;SDS011;46715;40.642;-7.920;2023-07-20T00:52:50;15.70;;;7.35;;
60873;SDS011;46715;40.642;-7.920;2023-07-20T00:54:52;16.75;;;7.30;;
60873;SDS011;46715;40.642;-7.920;2023-07-20T00:56:56;15.68;;;7.43;;
60873;SDS011;46715;40.642;-7.920;2023-07-20T01:00:58;16.65;;;7.10;;
60873;SDS011;46715;40.642;-7.920;2023-07-20T01:02:59;15.50;;;7.30;;
60873;SDS011;46715;40.642;-7.920;2023-07-20T01:05:01;15.98;;;7.18;;
60873;SDS011;46715;40.642;-7.920;2023-07-20T01:10:05;21.83;;;7.53;;
60873;SDS011;46715;40.642;-7.920;2023-07-20T01:11:52;18.02;;;8.13;;
60873;SDS011;46715;40.642;-7.920;2023-07-20T01:14:00;16.80;;;8.05;;
60873;SDS011;46715;40.642;-7.920;2023-07-20T01:16:00;18.13;;;8.37;;
60873;SDS011;46715;40.642;-7.920;2023-07-20T01:18:02;26.67;;;9.50;;
60873;SDS011;46715;40.642;-7.920;2023-07-20T01:20:05;31.42;;;11.75;;
60873;SDS011;46715;40.642;-7.920;2023-07-20T01:24:39;39.58;;;12.88;;
60873;SDS011;46715;40.642;-7.920;2023-07-20T01:27:00;32.85;;;12.32;;
60873;SDS011;46715;40.642;-7.920;2023-07-20T01:31:30;37.20;;;13.35;;
60873;SDS011;46715;40.642;-7.920;2023-07-20T01:33:32;31.83;;;11.30;;
60873;SDS011;46715;40.642;-7.920;2023-07-20T01:35:35;41.30;;;11.32;;
60873;SDS011;46715;40.642;-7.920;2023-07-20T01:37:37;33.25;;;10.23;;
60873;SDS011;46715;40.642;-7.920;2023-07-20T01:39:39;28.02;;;11.00;;
60873;SDS011;46715;40.642;-7.920;2023-07-20T01:41:41;20.33;;;9.38;;
60873;SDS011;46715;40.642;-7.920;2023-07-20T01:45:43;30.75;;;11.05;;
60873;SDS011;46715;40.642;-7.920;2023-07-20T01:47:44;39.17;;;11.65;;
60873;SDS011;46715;40.642;-7.920;2023-07-20T01:49:44;29.00;;;10.87;;
60873;SDS011;46715;40.642;-7.920;2023-07-20T01:51:46;27.50;;;11.02;;
60873;SDS011;46715;40.642;-7.920;2023-07-20T01:53:46;53.13;;;11.37;;
60873;SDS011;46715;40.642;-7.920;2023-07-20T01:55:48;22.42;;;10.70;;
60873;SDS011;46715;40.642;-7.920;2023-07-20T01:57:49;50.00;;;10.37;;
60873;SDS011;46715;40.642;-7.920;2023-07-20T01:59:49;42.13;;;11.27;;
60873;SDS011;46715;40.642;-7.920;2023-07-20T02:01:50;42.00;;;11.13;;
60873;SDS011;46715;40.642;-7.920;2023-07-20T02:03:51;29.58;;;11.90;;
60873;SDS011;46715;40.642;-7.920;2023-07-20T02:05:52;30.03;;;11.30;;
60873;SDS011;46715;40.642;-7.920;2023-07-20T02:07:59;38.97;;;11.98;;
60873;SDS011;46715;40.642;-7.920;2023-07-20T02:10:00;37.60;;;12.03;;
60873;SDS011;46715;40.642;-7.920;2023-07-20T02:12:01;47.20;;;12.53;;
60873;SDS011;46715;40.642;-7.920;2023-07-20T02:14:01;34.80;;;13.03;;
60873;SDS011;46715;40.642;-7.920;2023-07-20T02:16:02;51.10;;;13.03;;
60873;SDS011;46715;40.642;-7.920;2023-07-20T02:18:03;36.07;;;13.47;;
60873;SDS011;46715;40.642;-7.920;2023-07-20T02:20:08;28.77;;;11.95;;
60873;SDS011;46715;40.642;-7.920;2023-07-20T02:22:12;30.77;;;11.77;;
60873;SDS011;46715;40.642;-7.920;2023-07-20T02:24:13;25.37;;;11.23;;
60873;SDS011;46715;40.642;-7.920;2023-07-20T02:26:14;29.37;;;11.13;;
60873;SDS011;46715;40.642;-7.920;2023-07-20T02:28:15;23.08;;;11.30;;
60873;SDS011;46715;40.642;-7.920;2023-07-20T02:30:16;19.03;;;11.33;;
60873;SDS011;46715;40.642;-7.920;2023-07-20T02:34:18;21.30;;;12.40;;
60873;SDS011;46715;40.642;-7.920;2023-07-20T02:36:20;58.22;;;13.20;;
60873;SDS011;46715;40.642;-7.920;2023-07-20T02:38:20;37.40;;;11.77;;
60873;SDS011;46715;40.642;-7.920;2023-07-20T02:40:21;35.63;;;14.33;;
60873;SDS011;46715;40.642;-7.920;2023-07-20T02:42:23;43.83;;;13.15;;
60873;SDS011;46715;40.642;-7.920;2023-07-20T02:44:26;34.60;;;13.93;;
60873;SDS011;46715;40.642;-7.920;2023-07-20T02:46:26;36.30;;;13.23;;
60873;SDS011;46715;40.642;-7.920;2023-07-20T02:48:30;21.67;;;12.90;;
60873;SDS011;46715;40.642;-7.920;2023-07-20T02:50:30;24.90;;;13.60;;
60873;SDS011;46715;40.642;-7.920;2023-07-20T02:52:31;29.20;;;13.07;;
60873;SDS011;46715;40.642;-7.920;2023-07-20T02:54:32;41.87;;;12.60;;
60873;SDS011;46715;40.642;-7.920;2023-07-20T02:56:33;36.77;;;12.80;;
60873;SDS011;46715;40.642;-7.920;2023-07-20T02:58:39;54.40;;;14.33;;
60873;SDS011;46715;40.642;-7.920;2023-07-20T03:00:43;28.23;;;14.13;;
60873;SDS011;46715;40.642;-7.920;2023-07-20T03:02:44;35.03;;;13.50;;
60873;SDS011;46715;40.642;-7.920;2023-07-20T03:04:47;51.42;;;14.05;;
60873;SDS011;46715;40.642;-7.920;2023-07-20T03:06:48;28.20;;;13.00;;
60873;SDS011;46715;40.642;-7.920;2023-07-20T03:08:53;38.55;;;12.25;;
60873;SDS011;46715;40.642;-7.920;2023-07-20T03:10:54;18.63;;;12.07;;
60873;SDS011;46715;40.642;-7.920;2023-07-20T03:12:54;27.10;;;13.50;;
60873;SDS011;46715;40.642;-7.920;2023-07-20T03:14:55;35.60;;;13.17;;
60873;SDS011;46715;40.642;-7.920;2023-07-20T03:16:57;35.72;;;13.88;;
60873;SDS011;46715;40.642;-7.920;2023-07-20T03:18:58;27.70;;;13.93;;
60873;SDS011;46715;40.642;-7.920;2023-07-20T03:21:00;22.40;;;12.80;;
60873;SDS011;46715;40.642;-7.920;2023-07-20T03:23:01;43.30;;;15.30;;
60873;SDS011;46715;40.642;-7.920;2023-07-20T03:25:02;25.35;;;14.10;;
60873;SDS011;46715;40.642;-7.920;2023-07-20T03:27:04;25.80;;;14.00;;
60873;SDS011;46715;40.642;-7.920;2023-07-20T03:29:05;32.67;;;14.52;;
60873;SDS011;46715;40.642;-7.920;2023-07-20T03:31:07;28.77;;;15.10;;
60873;SDS011;46715;40.642;-7.920;2023-07-20T03:33:12;26.02;;;13.68;;
60873;SDS011;46715;40.642;-7.920;2023-07-20T03:35:12;22.63;;;12.90;;
60873;SDS011;46715;40.642;-7.920;2023-07-20T03:37:13;24.83;;;12.83;;
60873;SDS011;46715;40.642;-7.920;2023-07-20T03:39:14;22.70;;;11.80;;
60873;SDS011;46715;40.642;-7.920;2023-07-20T03:41:14;23.43;;;13.10;;
60873;SDS011;46715;40.642;-7.920;2023-07-20T03:45:17;38.13;;;13.73;;
60873;SDS011;46715;40.642;-7.920;2023-07-20T03:47:17;63.83;;;15.53;;
60873;SDS011;46715;40.642;-7.920;2023-07-20T03:49:18;26.23;;;13.47;;
60873;SDS011;46715;40.642;-7.920;2023-07-20T03:51:19;27.53;;;14.17;;
60873;SDS011;46715;40.642;-7.920;2023-07-20T03:53:20;37.83;;;15.27;;
60873;SDS011;46715;40.642;-7.920;2023-07-20T03:55:21;31.58;;;13.30;;
60873;SDS011;46715;40.642;-7.920;2023-07-20T03:57:22;53.83;;;15.67;;
60873;SDS011;46715;40.642;-7.920;2023-07-20T03:59:22;29.93;;;14.77;;
60873;SDS011;46715;40.642;-7.920;2023-07-20T04:01:23;25.23;;;14.53;;
60873;SDS011;46715;40.642;-7.920;2023-07-20T04:03:24;30.27;;;15.73;;
60873;SDS011;46715;40.642;-7.920;2023-07-20T04:05:27;27.77;;;15.48;;
60873;SDS011;46715;40.642;-7.920;2023-07-20T04:07:27;28.50;;;15.50;;
60873;SDS011;46715;40.642;-7.920;2023-07-20T04:09:28;55.27;;;16.87;;
60873;SDS011;46715;40.642;-7.920;2023-07-20T04:11:29;30.98;;;15.40;;
60873;SDS011;46715;40.642;-7.920;2023-07-20T04:13:29;33.93;;;15.50;;
60873;SDS011;46715;40.642;-7.920;2023-07-20T04:15:33;50.35;;;16.70;;
60873;SDS011;46715;40.642;-7.920;2023-07-20T04:17:34;36.97;;;16.40;;
60873;SDS011;46715;40.642;-7.920;2023-07-20T04:19:35;34.03;;;15.23;;
60873;SDS011;46715;40.642;-7.920;2023-07-20T04:21:39;59.13;;;17.03;;
60873;SDS011;46715;40.642;-7.920;2023-07-20T04:23:41;35.75;;;16.48;;
60873;SDS011;46715;40.642;-7.920;2023-07-20T04:25:43;29.90;;;14.82;;
60873;SDS011;46715;40.642;-7.920;2023-07-20T04:27:46;31.45;;;15.98;;
60873;SDS011;46715;40.642;-7.920;2023-07-20T04:29:46;38.23;;;16.33;;
60873;SDS011;46715;40.642;-7.920;2023-07-20T04:31:47;40.17;;;16.03;;
60873;SDS011;46715;40.642;-7.920;2023-07-20T04:33:48;55.57;;;15.67;;
60873;SDS011;46715;40.642;-7.920;2023-07-20T04:35:51;39.35;;;14.90;;
60873;SDS011;46715;40.642;-7.920;2023-07-20T04:37:57;44.92;;;15.85;;
60873;SDS011;46715;40.642;-7.920;2023-07-20T04:39:59;32.40;;;14.90;;
60873;SDS011;46715;40.642;-7.920;2023-07-20T04:42:00;42.83;;;14.75;;
60873;SDS011;46715;40.642;-7.920;2023-07-20T04:44:01;25.70;;;14.30;;
60873;SDS011;46715;40.642;-7.920;2023-07-20T04:46:04;32.00;;;14.75;;
60873;SDS011;46715;40.642;-7.920;2023-07-20T04:48:10;63.70;;;16.15;;
60873;SDS011;46715;40.642;-7.920;2023-07-20T04:50:14;30.20;;;14.18;;
60873;SDS011;46715;40.642;-7.920;2023-07-20T04:52:15;27.60;;;13.93;;
60873;SDS011;46715;40.642;-7.920;2023-07-20T04:54:15;31.73;;;14.80;;
60873;SDS011;46715;40.642;-7.920;2023-07-20T04:58:18;38.03;;;14.23;;
60873;SDS011;46715;40.642;-7.920;2023-07-20T05:00:20;62.38;;;14.98;;
60873;SDS011;46715;40.642;-7.920;2023-07-20T05:02:21;39.90;;;13.60;;
60873;SDS011;46715;40.642;-7.920;2023-07-20T05:04:23;35.17;;;14.73;;
60873;SDS011;46715;40.642;-7.920;2023-07-20T05:06:23;28.77;;;14.10;;
60873;SDS011;46715;40.642;-7.920;2023-07-20T05:08:24;23.07;;;13.40;;
60873;SDS011;46715;40.642;-7.920;2023-07-20T05:10:25;19.40;;;13.43;;
60873;SDS011;46715;40.642;-7.920;2023-07-20T05:12:26;27.00;;;12.93;;
60873;SDS011;46715;40.642;-7.920;2023-07-20T05:14:26;23.97;;;12.97;;
60873;SDS011;46715;40.642;-7.920;2023-07-20T05:18:34;18.33;;;11.27;;
60873;SDS011;46715;40.642;-7.920;2023-07-20T05:20:34;15.47;;;10.57;;
60873;SDS011;46715;40.642;-7.920;2023-07-20T05:22:36;18.55;;;11.18;;
60873;SDS011;46715;40.642;-7.920;2023-07-20T05:24:40;19.40;;;12.10;;
60873;SDS011;46715;40.642;-7.920;2023-07-20T05:26:41;19.53;;;11.87;;
60873;SDS011;46715;40.642;-7.920;2023-07-20T05:28:41;29.63;;;12.47;;
60873;SDS011;46715;40.642;-7.920;2023-07-20T05:30:42;27.43;;;13.53;;
60873;SDS011;46715;40.642;-7.920;2023-07-20T05:32:42;23.03;;;12.67;;
60873;SDS011;46715;40.642;-7.920;2023-07-20T05:34:45;40.53;;;13.70;;
60873;SDS011;46715;40.642;-7.920;2023-07-20T05:36:46;28.33;;;13.70;;
60873;SDS011;46715;40.642;-7.920;2023-07-20T05:38:46;35.97;;;13.37;;
60873;SDS011;46715;40.642;-7.920;2023-07-20T05:40:48;29.67;;;14.32;;
60873;SDS011;46715;40.642;-7.920;2023-07-20T05:42:49;35.83;;;14.40;;
60873;SDS011;46715;40.642;-7.920;2023-07-20T05:44:52;29.55;;;14.00;;
60873;SDS011;46715;40.642;-7.920;2023-07-20T05:46:54;28.40;;;13.18;;
60873;SDS011;46715;40.642;-7.920;2023-07-20T05:48:55;24.52;;;13.55;;
60873;SDS011;46715;40.642;-7.920;2023-07-20T05:50:55;24.23;;;12.37;;
60873;SDS011;46715;40.642;-7.920;2023-07-20T05:52:56;30.57;;;13.00;;
60873;SDS011;46715;40.642;-7.920;2023-07-20T05:54:57;24.27;;;12.07;;
60873;SDS011;46715;40.642;-7.920;2023-07-20T05:56:57;21.50;;;13.23;;
60873;SDS011;46715;40.642;-7.920;2023-07-20T05:58:58;24.25;;;13.00;;
60873;SDS011;46715;40.642;-7.920;2023-07-20T06:00:59;26.17;;;12.23;;
60873;SDS011;46715;40.642;-7.920;2023-07-20T06:03:00;19.60;;;12.07;;
60873;SDS011;46715;40.642;-7.920;2023-07-20T06:05:00;23.87;;;12.67;;
60873;SDS011;46715;40.642;-7.920;2023-07-20T06:07:02;34.60;;;12.55;;
60873;SDS011;46715;40.642;-7.920;2023-07-20T06:09:02;30.53;;;13.17;;
60873;SDS011;46715;40.642;-7.920;2023-07-20T06:11:04;45.67;;;13.57;;
60873;SDS011;46715;40.642;-7.920;2023-07-20T06:13:05;37.63;;;12.67;;
60873;SDS011;46715;40.642;-7.920;2023-07-20T06:15:09;70.25;;;14.38;;
60873;SDS011;46715;40.642;-7.920;2023-07-20T06:17:25;53.08;;;14.32;;
60873;SDS011;46715;40.642;-7.920;2023-07-20T06:19:26;26.20;;;14.63;;
60873;SDS011;46715;40.642;-7.920;2023-07-20T06:21:26;55.87;;;13.97;;
60873;SDS011;46715;40.642;-7.920;2023-07-20T06:23:27;21.90;;;13.20;;
60873;SDS011;46715;40.642;-7.920;2023-07-20T06:25:28;18.53;;;12.07;;
60873;SDS011;46715;40.642;-7.920;2023-07-20T06:27:30;31.98;;;12.38;;
60873;SDS011;46715;40.642;-7.920;2023-07-20T06:29:31;25.80;;;11.38;;
60873;SDS011;46715;40.642;-7.920;2023-07-20T06:31:32;27.20;;;13.07;;
60873;SDS011;46715;40.642;-7.920;2023-07-20T06:33:33;20.92;;;12.48;;
60873;SDS011;46715;40.642;-7.920;2023-07-20T06:35:37;37.28;;;13.55;;
60873;SDS011;46715;40.642;-7.920;2023-07-20T06:37:42;29.67;;;12.40;;
60873;SDS011;46715;40.642;-7.920;2023-07-20T06:39:42;20.60;;;12.57;;
60873;SDS011;46715;40.642;-7.920;2023-07-20T06:41:43;21.53;;;13.27;;
60873;SDS011;46715;40.642;-7.920;2023-07-20T06:43:43;51.83;;;13.77;;
60873;SDS011;46715;40.642;-7.920;2023-07-20T06:45:44;25.23;;;13.40;;
60873;SDS011;46715;40.642;-7.920;2023-07-20T06:47:45;37.37;;;15.87;;
60873;SDS011;46715;40.642;-7.920;2023-07-20T06:49:46;26.10;;;13.65;;
60873;SDS011;46715;40.642;-7.920;2023-07-20T06:51:47;17.83;;;11.50;;
60873;SDS011;46715;40.642;-7.920;2023-07-20T06:53:47;24.10;;;11.33;;
60873;SDS011;46715;40.642;-7.920;2023-07-20T06:55:48;15.30;;;11.30;;
60873;SDS011;46715;40.642;-7.920;2023-07-20T06:57:48;19.97;;;11.77;;
60873;SDS011;46715;40.642;-7.920;2023-07-20T06:59:49;16.10;;;10.57;;
60873;SDS011;46715;40.642;-7.920;2023-07-20T07:01:50;18.20;;;11.00;;
60873;SDS011;46715;40.642;-7.920;2023-07-20T07:03:50;32.53;;;11.33;;
60873;SDS011;46715;40.642;-7.920;2023-07-20T07:05:54;31.90;;;11.90;;
60873;SDS011;46715;40.642;-7.920;2023-07-20T07:07:56;15.70;;;10.20;;
60873;SDS011;46715;40.642;-7.920;2023-07-20T07:09:57;15.13;;;10.13;;
60873;SDS011;46715;40.642;-7.920;2023-07-20T07:11:58;13.98;;;10.15;;
60873;SDS011;46715;40.642;-7.920;2023-07-20T07:13:59;17.83;;;10.70;;
60873;SDS011;46715;40.642;-7.920;2023-07-20T07:15:59;16.20;;;10.27;;
60873;SDS011;46715;40.642;-7.920;2023-07-20T07:18:00;28.97;;;12.10;;
60873;SDS011;46715;40.642;-7.920;2023-07-20T07:20:01;20.87;;;9.97;;
60873;SDS011;46715;40.642;-7.920;2023-07-20T07:22:02;17.17;;;9.70;;
60873;SDS011;46715;40.642;-7.920;2023-07-20T07:24:02;18.40;;;10.50;;
60873;SDS011;46715;40.642;-7.920;2023-07-20T07:26:03;17.35;;;9.68;;
60873;SDS011;46715;40.642;-7.920;2023-07-20T07:28:08;16.40;;;9.38;;
60873;SDS011;46715;40.642;-7.920;2023-07-20T07:30:09;16.73;;;10.67;;
60873;SDS011;46715;40.642;-7.920;2023-07-20T07:32:10;14.65;;;9.70;;
60873;SDS011;46715;40.642;-7.920;2023-07-20T07:34:11;14.07;;;9.45;;
60873;SDS011;46715;40.642;-7.920;2023-07-20T07:36:12;15.20;;;9.05;;
60873;SDS011;46715;40.642;-7.920;2023-07-20T07:38:12;14.63;;;8.60;;
60873;SDS011;46715;40.642;-7.920;2023-07-20T07:40:13;10.97;;;7.63;;
60873;SDS011;46715;40.642;-7.920;2023-07-20T07:42:14;13.75;;;8.80;;
60873;SDS011;46715;40.642;-7.920;2023-07-20T07:44:15;10.83;;;7.80;;
60873;SDS011;46715;40.642;-7.920;2023-07-20T07:46:16;12.73;;;8.03;;
60873;SDS011;46715;40.642;-7.920;2023-07-20T07:48:16;14.43;;;8.97;;
60873;SDS011;46715;40.642;-7.920;2023-07-20T07:50:17;12.60;;;8.30;;
60873;SDS011;46715;40.642;-7.920;2023-07-20T07:52:18;12.43;;;7.90;;
60873;SDS011;46715;40.642;-7.920;2023-07-20T07:54:18;13.27;;;9.07;;
60873;SDS011;46715;40.642;-7.920;2023-07-20T07:56:19;12.90;;;7.88;;
60873;SDS011;46715;40.642;-7.920;2023-07-20T07:58:23;14.07;;;9.15;;
60873;SDS011;46715;40.642;-7.920;2023-07-20T08:00:24;14.17;;;8.67;;
60873;SDS011;46715;40.642;-7.920;2023-07-20T08:02:24;13.90;;;8.87;;
60873;SDS011;46715;40.642;-7.920;2023-07-20T08:04:25;15.57;;;9.33;;
60873;SDS011;46715;40.642;-7.920;2023-07-20T08:06:26;15.13;;;9.67;;
60873;SDS011;46715;40.642;-7.920;2023-07-20T08:08:26;13.80;;;8.77;;
60873;SDS011;46715;40.642;-7.920;2023-07-20T08:10:27;13.37;;;9.03;;
60873;SDS011;46715;40.642;-7.920;2023-07-20T08:12:28;11.53;;;8.47;;
60873;SDS011;46715;40.642;-7.920;2023-07-20T08:14:28;16.27;;;9.87;;
60873;SDS011;46715;40.642;-7.920;2023-07-20T08:16:29;12.73;;;8.77;;
60873;SDS011;46715;40.642;-7.920;2023-07-20T08:18:29;16.33;;;8.87;;
60873;SDS011;46715;40.642;-7.920;2023-07-20T08:20:31;12.63;;;8.85;;
60873;SDS011;46715;40.642;-7.920;2023-07-20T08:22:32;13.15;;;8.35;;
60873;SDS011;46715;40.642;-7.920;2023-07-20T08:24:33;13.30;;;8.57;;
60873;SDS011;46715;40.642;-7.920;2023-07-20T08:26:33;11.82;;;8.57;;
60873;SDS011;46715;40.642;-7.920;2023-07-20T08:28:34;12.77;;;8.17;;
60873;SDS011;46715;40.642;-7.920;2023-07-20T08:30:41;12.07;;;8.52;;
60873;SDS011;46715;40.642;-7.920;2023-07-20T08:32:43;11.38;;;8.13;;
60873;SDS011;46715;40.642;-7.920;2023-07-20T08:34:44;14.23;;;9.17;;
60873;SDS011;46715;40.642;-7.920;2023-07-20T08:36:45;10.82;;;7.85;;
60873;SDS011;46715;40.642;-7.920;2023-07-20T08:38:46;14.27;;;9.20;;
60873;SDS011;46715;40.642;-7.920;2023-07-20T08:40:48;13.93;;;8.63;;
60873;SDS011;46715;40.642;-7.920;2023-07-20T08:42:49;14.10;;;9.47;;
60873;SDS011;46715;40.642;-7.920;2023-07-20T08:44:50;15.35;;;8.90;;
60873;SDS011;46715;40.642;-7.920;2023-07-20T08:46:53;13.70;;;8.13;;
60873;SDS011;46715;40.642;-7.920;2023-07-20T08:48:54;12.32;;;8.27;;
60873;SDS011;46715;40.642;-7.920;2023-07-20T08:50:56;12.70;;;8.48;;
60873;SDS011;46715;40.642;-7.920;2023-07-20T08:53:00;14.02;;;9.20;;
60873;SDS011;46715;40.642;-7.920;2023-07-20T08:55:02;12.88;;;7.57;;
60873;SDS011;46715;40.642;-7.920;2023-07-20T08:57:04;10.00;;;7.53;;
60873;SDS011;46715;40.642;-7.920;2023-07-20T08:59:06;11.98;;;7.90;;
60873;SDS011;46715;40.642;-7.920;2023-07-20T09:01:08;18.05;;;8.15;;
60873;SDS011;46715;40.642;-7.920;2023-07-20T09:03:09;10.77;;;7.20;;
60873;SDS011;46715;40.642;-7.920;2023-07-20T09:05:11;9.52;;;7.20;;
60873;SDS011;46715;40.642;-7.920;2023-07-20T09:07:13;12.32;;;8.35;;
60873;SDS011;46715;40.642;-7.920;2023-07-20T09:09:16;12.93;;;8.77;;
60873;SDS011;46715;40.642;-7.920;2023-07-20T09:11:17;12.25;;;7.60;;
60873;SDS011;46715;40.642;-7.920;2023-07-20T09:13:17;10.70;;;7.20;;
60873;SDS011;46715;40.642;-7.920;2023-07-20T09:15:18;12.03;;;8.43;;
60873;SDS011;46715;40.642;-7.920;2023-07-20T09:17:21;16.52;;;9.05;;
60873;SDS011;46715;40.642;-7.920;2023-07-20T09:19:26;15.27;;;9.18;;
60873;SDS011;46715;40.642;-7.920;2023-07-20T09:21:29;16.60;;;9.68;;
60873;SDS011;46715;40.642;-7.920;2023-07-20T09:23:34;17.52;;;9.38;;
60873;SDS011;46715;40.642;-7.920;2023-07-20T09:25:35;13.73;;;8.85;;
60873;SDS011;46715;40.642;-7.920;2023-07-20T09:27:37;15.50;;;9.90;;
60873;SDS011;46715;40.642;-7.920;2023-07-20T09:29:50;13.30;;;9.57;;
60873;SDS011;46715;40.642;-7.920;2023-07-20T09:31:58;15.52;;;10.65;;
60873;SDS011;46715;40.642;-7.920;2023-07-20T09:34:03;14.03;;;8.50;;
60873;SDS011;46715;40.642;-7.920;2023-07-20T09:36:05;14.93;;;9.52;;
60873;SDS011;46715;40.642;-7.920;2023-07-20T09:38:06;15.32;;;9.85;;
60873;SDS011;46715;40.642;-7.920;2023-07-20T09:40:09;15.38;;;9.48;;
60873;SDS011;46715;40.642;-7.920;2023-07-20T09:42:13;12.57;;;8.57;;
60873;SDS011;46715;40.642;-7.920;2023-07-20T09:44:15;13.00;;;8.82;;
60873;SDS011;46715;40.642;-7.920;2023-07-20T09:48:17;13.18;;;8.93;;
60873;SDS011;46715;40.642;-7.920;2023-07-20T09:50:22;13.85;;;9.25;;
60873;SDS011;46715;40.642;-7.920;2023-07-20T09:52:23;15.15;;;8.95;;
60873;SDS011;46715;40.642;-7.920;2023-07-20T09:54:26;14.77;;;8.40;;
60873;SDS011;46715;40.642;-7.920;2023-07-20T09:56:28;12.48;;;9.25;;
60873;SDS011;46715;40.642;-7.920;2023-07-20T09:58:30;11.35;;;8.05;;
60873;SDS011;46715;40.642;-7.920;2023-07-20T10:00:34;12.38;;;8.82;;
60873;SDS011;46715;40.642;-7.920;2023-07-20T10:02:45;14.75;;;8.93;;
60873;SDS011;46715;40.642;-7.920;2023-07-20T10:04:46;12.02;;;8.30;;
60873;SDS011;46715;40.642;-7.920;2023-07-20T10:06:49;14.50;;;8.20;;
60873;SDS011;46715;40.642;-7.920;2023-07-20T10:08:55;14.10;;;8.20;;
60873;SDS011;46715;40.642;-7.920;2023-07-20T10:11:02;16.98;;;8.77;;
60873;SDS011;46715;40.642;-7.920;2023-07-20T10:13:05;11.88;;;7.90;;
60873;SDS011;46715;40.642;-7.920;2023-07-20T10:15:12;13.65;;;9.05;;
60873;SDS011;46715;40.642;-7.920;2023-07-20T10:17:19;14.00;;;8.95;;
60873;SDS011;46715;40.642;-7.920;2023-07-20T10:19:23;13.10;;;7.82;;
60873;SDS011;46715;40.642;-7.920;2023-07-20T10:22:00;12.50;;;8.73;;
60873;SDS011;46715;40.642;-7.920;2023-07-20T10:24:07;13.00;;;7.45;;
60873;SDS011;46715;40.642;-7.920;2023-07-20T10:28:10;14.20;;;8.43;;
60873;SDS011;46715;40.642;-7.920;2023-07-20T10:30:11;13.55;;;7.57;;
60873;SDS011;46715;40.642;-7.920;2023-07-20T10:32:12;11.40;;;7.35;;
60873;SDS011;46715;40.642;-7.920;2023-07-20T10:36:14;12.00;;;7.40;;
60873;SDS011;46715;40.642;-7.920;2023-07-20T10:40:55;14.60;;;6.72;;
60873;SDS011;46715;40.642;-7.920;2023-07-20T10:43:01;13.70;;;6.90;;
60873;SDS011;46715;40.642;-7.920;2023-07-20T10:45:02;9.88;;;7.03;;
60873;SDS011;46715;40.642;-7.920;2023-07-20T10:47:07;8.98;;;6.65;;
60873;SDS011;46715;40.642;-7.920;2023-07-20T10:49:12;11.68;;;6.65;;
60873;SDS011;46715;40.642;-7.920;2023-07-20T10:51:19;9.95;;;6.38;;
60873;SDS011;46715;40.642;-7.920;2023-07-20T10:53:21;9.15;;;6.80;;
60873;SDS011;46715;40.642;-7.920;2023-07-20T10:55:22;10.13;;;6.22;;
60873;SDS011;46715;40.642;-7.920;2023-07-20T10:57:29;9.65;;;5.57;;
60873;SDS011;46715;40.642;-7.920;2023-07-20T11:01:35;11.30;;;5.17;;
60873;SDS011;46715;40.642;-7.920;2023-07-20T11:03:37;9.98;;;5.25;;
60873;SDS011;46715;40.642;-7.920;2023-07-20T11:05:39;9.50;;;4.60;;
60873;SDS011;46715;40.642;-7.920;2023-07-20T11:07:40;10.25;;;5.15;;
60873;SDS011;46715;40.642;-7.920;2023-07-20T11:09:41;8.05;;;4.63;;
60873;SDS011;46715;40.642;-7.920;2023-07-20T11:11:46;9.25;;;4.40;;
60873;SDS011;46715;40.642;-7.920;2023-07-20T11:14:00;8.40;;;4.70;;
60873;SDS011;46715;40.642;-7.920;2023-07-20T11:16:03;10.63;;;4.80;;
60873;SDS011;46715;40.642;-7.920;2023-07-20T11:18:11;8.70;;;4.70;;
60873;SDS011;46715;40.642;-7.920;2023-07-20T11:20:12;8.60;;;4.32;;
60873;SDS011;46715;40.642;-7.920;2023-07-20T11:22:13;7.35;;;3.70;;
60873;SDS011;46715;40.642;-7.920;2023-07-20T11:24:17;12.18;;;4.70;;
60873;SDS011;46715;40.642;-7.920;2023-07-20T11:26:18;12.77;;;4.35;;
60873;SDS011;46715;40.642;-7.920;2023-07-20T11:28:19;7.97;;;4.30;;
60873;SDS011;46715;40.642;-7.920;2023-07-20T11:30:20;8.18;;;5.03;;
60873;SDS011;46715;40.642;-7.920;2023-07-20T11:32:21;7.82;;;4.22;;
60873;SDS011;46715;40.642;-7.920;2023-07-20T11:34:23;7.00;;;4.63;;
60873;SDS011;46715;40.642;-7.920;2023-07-20T11:36:23;12.75;;;4.75;;
60873;SDS011;46715;40.642;-7.920;2023-07-20T11:38:24;7.90;;;4.13;;
60873;SDS011;46715;40.642;-7.920;2023-07-20T11:40:25;8.10;;;4.72;;
60873;SDS011;46715;40.642;-7.920;2023-07-20T11:42:26;6.95;;;4.78;;
60873;SDS011;46715;40.642;-7.920;2023-07-20T11:44:27;10.15;;;4.80;;
60873;SDS011;46715;40.642;-7.920;2023-07-20T11:46:28;8.00;;;4.65;;
60873;SDS011;46715;40.642;-7.920;2023-07-20T11:48:29;7.55;;;4.78;;
60873;SDS011;46715;40.642;-7.920;2023-07-20T11:50:30;8.75;;;5.05;;
60873;SDS011;46715;40.642;-7.920;2023-07-20T11:52:31;9.88;;;5.55;;
60873;SDS011;46715;40.642;-7.920;2023-07-20T11:54:40;7.05;;;4.90;;
60873;SDS011;46715;40.642;-7.920;2023-07-20T11:56:41;10.85;;;4.93;;
60873;SDS011;46715;40.642;-7.920;2023-07-20T11:58:43;6.80;;;4.72;;
60873;SDS011;46715;40.642;-7.920;2023-07-20T12:00:45;8.80;;;5.60;;
60873;SDS011;46715;40.642;-7.920;2023-07-20T12:02:46;8.82;;;4.72;;
60873;SDS011;46715;40.642;-7.920;2023-07-20T12:04:47;9.75;;;4.80;;
60873;SDS011;46715;40.642;-7.920;2023-07-20T12:08:48;7.23;;;5.07;;
60873;SDS011;46715;40.642;-7.920;2023-07-20T12:10:49;6.85;;;4.70;;
60873;SDS011;46715;40.642;-7.920;2023-07-20T12:12:50;10.40;;;4.85;;
60873;SDS011;46715;40.642;-7.920;2023-07-20T12:14:51;9.40;;;5.78;;
60873;SDS011;46715;40.642;-7.920;2023-07-20T12:16:53;8.30;;;4.90;;
60873;SDS011;46715;40.642;-7.920;2023-07-20T12:19:04;8.18;;;4.82;;
60873;SDS011;46715;40.642;-7.920;2023-07-20T12:21:10;8.00;;;4.82;;